»·PEaware :: N13M KLAX-KSNA

N13M :: KLAX-KSNA

FLIGHT INFORMATION

Flight Status: Arrived
Operator: Privately registered:
United States
More flights under this callsign
Pilot: Zhuojun Y. (28503)
Aircraft: ROBIN DR-400
(DR40)
More flights by this aircraft type
Origin: KLAX Los Angeles Intl
United States
Destination: KSNA John Wayne-Orange Co
United States
More flights between these airports :: More routes between these airports
Route: SLI8 SLI
File this flight plan on PilotEdge
Remarks: TEC route LAXP34
Altitude:
(Current/Filed)
5,000ft
Speed:
(Current/Filed)
110kts
Departed: 16-Apr-20 09:04 PM
Arrived: 16-Apr-20 09:46 PM
Distance/Time
Traveled:
31nm/0:41
Distance/Time
To Go:
Arrived

Flight Plot

Page will automatically refresh every two minutes.

Flight plan parsing failed; only flown route is shown


Map Options




Map Legend


Flown Route
Filed Route
Departure Airport
Arrival Airport
Navaid (VOR, NDB)
Fix

Horizontal Profiles

Position Reports

Time Latitude Longitude Heading Altitude Ground
Speed
16-Apr-20 20:37 33.941683 -118.379690 143 108ft 0kts
16-Apr-20 20:38 33.941683 -118.379690 143 108ft 0kts
16-Apr-20 20:39 33.941683 -118.379690 143 108ft 0kts
16-Apr-20 20:40 33.941683 -118.379690 143 108ft 0kts
16-Apr-20 20:41 33.941683 -118.379690 143 108ft 0kts
16-Apr-20 20:42 33.941683 -118.379690 143 108ft 0kts
16-Apr-20 20:43 33.941683 -118.379690 143 108ft 0kts
16-Apr-20 20:44 33.941683 -118.379690 143 108ft 0kts
16-Apr-20 20:45 33.941683 -118.379690 143 108ft 0kts
16-Apr-20 20:46 33.941683 -118.379690 143 108ft 0kts
16-Apr-20 20:47 33.941683 -118.379690 143 108ft 0kts
16-Apr-20 20:48 33.941683 -118.379690 143 108ft 0kts
16-Apr-20 20:49 33.941683 -118.379690 143 108ft 0kts
16-Apr-20 20:50 33.941683 -118.379690 143 108ft 0kts
16-Apr-20 20:51 33.941683 -118.379690 143 108ft 0kts
16-Apr-20 20:52 33.941683 -118.379690 143 108ft 0kts
16-Apr-20 20:53 33.941683 -118.379690 143 108ft 0kts
16-Apr-20 20:54 33.941683 -118.379690 143 108ft 0kts
16-Apr-20 20:55 33.941683 -118.379690 143 108ft 0kts
16-Apr-20 20:56 33.941683 -118.379690 143 108ft 0kts
16-Apr-20 20:57 33.941683 -118.379690 143 108ft 0kts
16-Apr-20 20:58 33.941683 -118.379690 143 108ft 0kts
16-Apr-20 20:59 33.941683 -118.379690 143 108ft 0kts
16-Apr-20 21:00 33.940801 -118.380060 174 108ft 0kts
16-Apr-20 21:01 33.940801 -118.380060 174 108ft 0kts
16-Apr-20 21:02 33.939882 -118.380203 233 108ft 10kts
16-Apr-20 21:03 33.938280 -118.395685 262 437ft 94kts
16-Apr-20 21:04 33.933805 -118.429869 257 1488ft 108kts
16-Apr-20 21:05 33.915401 -118.455831 208 2358ft 116kts
16-Apr-20 21:06 33.885784 -118.459892 173 3373ft 116kts
16-Apr-20 21:07 33.853274 -118.454555 174 4108ft 121kts
16-Apr-20 21:08 33.824981 -118.434535 139 4020ft 120kts
16-Apr-20 21:09 33.799858 -118.409424 144 3847ft 123kts
16-Apr-20 21:10 33.776585 -118.387652 141 3915ft 121kts
16-Apr-20 21:11 33.748976 -118.363848 144 3959ft 122kts
16-Apr-20 21:12 33.722065 -118.339727 144 3949ft 117kts
16-Apr-20 21:13 33.709735 -118.308836 57 3795ft 127kts
16-Apr-20 21:14 33.724195 -118.272549 64 3945ft 117kts
16-Apr-20 21:15 33.737236 -118.237424 66 3975ft 115kts
16-Apr-20 21:16 33.747351 -118.201046 71 4022ft 114kts
16-Apr-20 21:17 33.754753 -118.163563 78 4019ft 116kts
16-Apr-20 21:18 33.762145 -118.125943 74 3997ft 112kts
16-Apr-20 21:19 33.769883 -118.089770 77 3996ft 112kts
16-Apr-20 21:20 33.776598 -118.052891 77 3961ft 114kts
16-Apr-20 21:21 33.793122 -118.022272 66 3968ft 112kts
16-Apr-20 21:22 33.808517 -117.989746 56 3985ft 112kts
16-Apr-20 21:23 33.822420 -117.956149 62 3992ft 112kts
16-Apr-20 21:25 33.837568 -117.923534 63 4001ft 112kts
16-Apr-20 21:26 33.850942 -117.889683 59 4004ft 112kts
16-Apr-20 21:27 33.865391 -117.856204 63 4004ft 112kts
16-Apr-20 21:28 33.877206 -117.821424 69 4006ft 112kts
16-Apr-20 21:29 33.889385 -117.786846 65 3993ft 112kts
16-Apr-20 21:30 33.901917 -117.752596 58 4005ft 112kts
16-Apr-20 21:31 33.916434 -117.719261 69 3999ft 112kts
16-Apr-20 21:32 33.936905 -117.692450 27 3837ft 111kts
16-Apr-20 21:33 33.964418 -117.693127 299 3543ft 111kts
16-Apr-20 21:34 33.948244 -117.712805 149 3470ft 113kts
16-Apr-20 21:35 33.919796 -117.712632 211 3611ft 115kts
16-Apr-20 21:36 33.890912 -117.732937 208 3548ft 117kts
16-Apr-20 21:37 33.861894 -117.751146 208 3441ft 123kts
16-Apr-20 21:38 33.832522 -117.770453 207 3107ft 124kts
16-Apr-20 21:39 33.803940 -117.787826 205 2457ft 111kts
16-Apr-20 21:40 33.776737 -117.803837 207 2023ft 104kts
16-Apr-20 21:41 33.754763 -117.818521 207 1661ft 79kts
16-Apr-20 21:42 33.735978 -117.830147 208 1261ft 75kts
16-Apr-20 21:42 33.720741 -117.840466 205 967ft 75kts
16-Apr-20 21:43 33.702333 -117.851912 208 542ft 73kts
16-Apr-20 21:45 33.681557 -117.865097 207 86ft 71kts
16-Apr-20 21:45 33.674101 -117.870428 284 59ft 10kts
16-Apr-20 21:46 33.672853 -117.873234 298 59ft 0kts
16-Apr-20 21:48 33.672853 -117.873234 298 59ft 0kts
16-Apr-20 21:48 33.672853 -117.873234 298 59ft 0kts
16-Apr-20 21:50 33.672853 -117.873234 298 59ft 0kts
16-Apr-20 21:50 33.672853 -117.873234 298 59ft 0kts
16-Apr-20 21:51 33.672853 -117.873234 298 59ft 0kts

Navigation Log

Ident Type
Flight plan parsing failed, navigation log unavailable